Kriti II — SZQW — position and weather

sailwx.info

Track history (hours):
 
Tides and Currents Weather Stations Pressure Air Temp Water Temp Dewpoint Dewpoint Depression Visibility Wind Speed Wind Dir Waves Ship Positions

Kriti II

Last reported at 2017-Sep-20 19:47 UTC. Time now 2017-Sep-24 00:00 UTC.
Position N 37°30' E 023°46'.

Length 192 m; draft 7 m.

Type: Passenger vessel. MMSI: 237032000.

Date/timePositionNaut miles runAvg speedWind from/ knotsBaromVisibWave heightAir tempDewpointWater temp
2017-Sep-20 19:47N 37°30' E 023°46'620.1
2017-Sep-20 19:31N 37°35' E 023°44'1020.1
2017-Sep-20 19:01N 37°45' E 023°39'1019.1
2017-Sep-20 18:31N 37°54' E 023°37'3 5.3
2017-Sep-20 17:59N 37°57' E 023°38'0 0.0
2017-Sep-20 17:29N 37°57' E 023°38'0 0.0
2017-Sep-20 16:59N 37°57' E 023°38'0 0.0
2017-Sep-20 16:29N 37°57' E 023°38'0 0.0
2017-Sep-20 15:59N 37°57' E 023°38'0 0.0
2017-Sep-20 15:29N 37°57' E 023°38'0 0.0
2017-Sep-20 14:59N 37°57' E 023°38'0 0.0
2017-Sep-20 13:59N 37°57' E 023°38'0 0.0
2017-Sep-20 13:29N 37°57' E 023°38'0 0.0
2017-Sep-20 12:59N 37°57' E 023°38'0 0.0
2017-Sep-20 12:29N 37°57' E 023°38'0 0.0
2017-Sep-20 11:59N 37°57' E 023°38'0 0.0
2017-Sep-20 11:29N 37°57' E 023°38'0 0.0
2017-Sep-20 10:59N 37°57' E 023°38'0 0.0
2017-Sep-20 10:26N 37°57' E 023°38'0 0.0
2017-Sep-20 09:59N 37°57' E 023°38'0 0.0
2017-Sep-20 09:29N 37°57' E 023°38'0 0.0
2017-Sep-20 08:59N 37°57' E 023°38'0 0.0
2017-Sep-20 08:29N 37°57' E 023°38'0 0.0
2017-Sep-20 07:59N 37°57' E 023°38'0 0.0
2017-Sep-20 07:26N 37°57' E 023°38'0 0.0
2017-Sep-20 06:59N 37°57' E 023°38'0 0.0
2017-Sep-20 06:29N 37°57' E 023°38'0 0.0
2017-Sep-20 05:59N 37°57' E 023°38'0 0.0
2017-Sep-20 05:30N 37°57' E 023°38'0 0.0
2017-Sep-20 04:59N 37°57' E 023°38'0 0.0
2017-Sep-20 04:29N 37°57' E 023°38'0 0.0
2017-Sep-20 04:00N 37°57' E 023°38'0 0.4
2017-Sep-20 03:31N 37°57' E 023°38'3 6.1
2017-Sep-20 03:01N 37°54' E 023°38'1019.5
2017-Sep-20 02:30N 37°45' E 023°43'1019.8
2017-Sep-20 02:00N 37°35' E 023°48'1020.1
2017-Sep-20 01:30N 37°26' E 023°52'1019.8
2017-Sep-20 01:00N 37°17' E 023°56'1019.7
2017-Sep-20 00:30N 37°07' E 024°01'1019.6
2017-Sep-20 00:00N 36°58' E 024°03'1019.5
2017-Sep-19 23:30N 36°49' E 024°08'1019.5
2017-Sep-19 23:00N 36°40' E 024°12'1019.8
2017-Sep-19 22:30N 36°30' E 024°16'1019.4
2017-Sep-19 22:00N 36°22' E 024°22'1019.2
2017-Sep-19 21:30N 36°14' E 024°29'1019.0
2017-Sep-19 21:00N 36°06' E 024°35'16 0.8
2017-Sep-18 23:33N 36°20' E 024°24'120.0
2017-Sep-18 23:30N 36°20' E 024°23'1019.8
2017-Sep-18 23:00N 36°29' E 024°17'2619.9
2017-Sep-18 21:43N 36°52' E 024°04'519.9
2017-Sep-18 21:29N 36°57' E 024°02'1019.9
2017-Sep-18 21:00N 37°06' E 023°58'1320.0
2017-Sep-18 20:20N 37°18' E 023°53'720.0
2017-Sep-18 20:00N 37°25' E 023°50'1019.9
2017-Sep-18 19:30N 37°34' E 023°45'1020.1
2017-Sep-18 19:00N 37°43' E 023°40'1019.4
2017-Sep-18 18:30N 37°53' E 023°37'4 8.6
2017-Sep-18 18:00N 37°57' E 023°38'0 0.0
2017-Sep-18 17:30N 37°57' E 023°38'0 0.0
2017-Sep-18 17:00N 37°57' E 023°38'0 0.0
2017-Sep-18 16:30N 37°57' E 023°38'0 0.0
2017-Sep-18 16:00N 37°57' E 023°38'0 0.0
2017-Sep-18 15:30N 37°57' E 023°38'0 0.0
2017-Sep-18 15:00N 37°57' E 023°38'0 0.0
2017-Sep-18 14:30N 37°57' E 023°38'0 0.0
2017-Sep-18 14:00N 37°57' E 023°38'0 0.0
2017-Sep-18 13:30N 37°57' E 023°38'0 0.0
2017-Sep-18 13:00N 37°57' E 023°38'0 0.0
2017-Sep-18 12:30N 37°57' E 023°38'0 0.0
2017-Sep-18 12:00N 37°57' E 023°38'0 0.0
2017-Sep-18 11:30N 37°57' E 023°38'0 0.0
2017-Sep-18 11:00N 37°57' E 023°38'0 0.0
2017-Sep-18 10:30N 37°57' E 023°38'0 0.0
2017-Sep-18 10:00N 37°57' E 023°38'0 0.0
2017-Sep-18 09:30N 37°57' E 023°38'0 0.0
2017-Sep-18 09:00N 37°57' E 023°38'0 0.0
2017-Sep-18 08:30N 37°57' E 023°38'0 0.0
2017-Sep-18 08:00N 37°57' E 023°38'0 0.0
2017-Sep-18 07:30N 37°57' E 023°38'0 0.0
2017-Sep-18 07:00N 37°57' E 023°38'0 0.0
2017-Sep-18 06:30N 37°57' E 023°38'0 0.0
2017-Sep-18 06:00N 37°57' E 023°38'0 0.0
2017-Sep-18 05:30N 37°57' E 023°38'0 0.0
2017-Sep-18 05:00N 37°57' E 023°38'0 0.0
2017-Sep-18 04:30N 37°57' E 023°38'0 0.0
2017-Sep-18 04:00N 37°57' E 023°38'0 0.0
2017-Sep-18 03:30N 37°57' E 023°38'1 2.3
2017-Sep-18 03:01N 37°56' E 023°37'611.4
2017-Sep-18 02:31N 37°51' E 023°39'1019.8
2017-Sep-18 02:00N 37°42' E 023°45'1020.3
2017-Sep-18 01:31N 37°32' E 023°49'1020.3
2017-Sep-18 01:01N 37°23' E 023°53'1020.3
2017-Sep-18 00:30N 37°13' E 023°57'1020.6
2017-Sep-18 00:00N 37°03' E 024°01'3620.4
2017-Sep-17 22:13N 36°29' E 024°17'41 1.9
2017-Sep-17 00:56N 35°54' E 024°44'920.5
2017-Sep-17 00:30N 36°01' E 024°38'6720.3
2017-Sep-16 21:13N 37°01' E 024°00'2720.1
2017-Sep-16 19:54N 37°26' E 023°49'820.1
2017-Sep-16 19:30N 37°33' E 023°45'1019.9
2017-Sep-16 19:00N 37°43' E 023°41'1019.6
2017-Sep-16 18:30N 37°52' E 023°37'5 9.8
2017-Sep-16 17:59N 37°57' E 023°38'0 0.0
2017-Sep-16 17:29N 37°57' E 023°38'0 0.0
2017-Sep-16 16:59N 37°57' E 023°38'0 0.0
2017-Sep-16 16:29N 37°57' E 023°38'0 0.0
2017-Sep-16 15:56N 37°57' E 023°38'0 0.0
2017-Sep-16 15:30N 37°57' E 023°38'0 0.0
2017-Sep-16 14:59N 37°57' E 023°38'0 0.0
2017-Sep-16 14:29N 37°57' E 023°38'0 0.0
2017-Sep-16 13:59N 37°57' E 023°38'0 0.0
2017-Sep-16 13:29N 37°57' E 023°38'0 0.0
2017-Sep-16 13:00N 37°57' E 023°38'0 0.0
2017-Sep-16 12:29N 37°57' E 023°38'0 0.0
2017-Sep-16 11:59N 37°57' E 023°38'0 0.0
2017-Sep-16 11:29N 37°57' E 023°38'0 0.0
2017-Sep-16 10:59N 37°57' E 023°38'0 0.0
2017-Sep-16 10:29N 37°57' E 023°38'0 0.0
2017-Sep-16 09:56N 37°57' E 023°38'0 0.0
2017-Sep-16 09:30N 37°57' E 023°38'0 0.0
2017-Sep-16 08:59N 37°57' E 023°38'0 0.0
2017-Sep-16 08:28N 37°57' E 023°38'0 0.0
2017-Sep-16 07:58N 37°57' E 023°38'0 0.0
2017-Sep-16 07:28N 37°57' E 023°38'0 0.0
2017-Sep-16 06:58N 37°57' E 023°38'0 0.0
2017-Sep-16 06:29N 37°57' E 023°38'0 0.0
2017-Sep-16 05:58N 37°57' E 023°38'0 0.0
2017-Sep-16 05:22N 37°57' E 023°38'0 0.0
2017-Sep-16 04:55N 37°57' E 023°38'0 0.0
2017-Sep-16 04:28N 37°57' E 023°38'0 0.0
2017-Sep-16 03:58N 37°57' E 023°38'0 0.0
2017-Sep-16 03:30N 37°57' E 023°38'1 2.6
2017-Sep-16 03:00N 37°56' E 023°37'816.9
2017-Sep-16 02:30N 37°48' E 023°41'1019.3
2017-Sep-16 02:00N 37°39' E 023°46'2620.0
2017-Sep-16 00:43N 37°15' E 023°57'420.2
2017-Sep-16 00:30N 37°11' E 023°58'1020.2
2017-Sep-16 00:00N 37°01' E 024°01'1020.1
2017-Sep-15 23:30N 36°52' E 024°06'28 1.0
2017-Sep-14 20:33N 37°17' E 023°53'119.2
2017-Sep-14 20:30N 37°18' E 023°53'1019.5
2017-Sep-14 20:00N 37°27' E 023°48'1019.4
2017-Sep-14 19:30N 37°36' E 023°44'1019.6
2017-Sep-14 19:01N 37°45' E 023°39'918.8
2017-Sep-14 18:31N 37°54' E 023°37'3 5.1
2017-Sep-14 18:00N 37°57' E 023°38'0 0.0
2017-Sep-14 17:30N 37°57' E 023°38'0 0.0
2017-Sep-14 17:00N 37°57' E 023°38'0 0.0
2017-Sep-14 16:30N 37°57' E 023°38'0 0.0
2017-Sep-14 16:00N 37°57' E 023°38'0 0.0
2017-Sep-14 15:30N 37°57' E 023°38'0 0.0
2017-Sep-14 15:00N 37°57' E 023°38'0 0.0
2017-Sep-14 14:30N 37°57' E 023°38'0 0.0
2017-Sep-14 14:01N 37°57' E 023°38'0 0.0
2017-Sep-14 13:30N 37°57' E 023°38'0 0.0
2017-Sep-14 13:00N 37°57' E 023°38'0 0.0
2017-Sep-14 12:30N 37°57' E 023°38'0 0.0
2017-Sep-14 12:00N 37°57' E 023°38'0 0.0
2017-Sep-14 11:30N 37°57' E 023°38'0 0.0
2017-Sep-14 11:00N 37°57' E 023°38'0 0.0
2017-Sep-14 10:30N 37°57' E 023°38'0 0.0
2017-Sep-14 10:00N 37°57' E 023°38'0 0.0
2017-Sep-14 09:30N 37°57' E 023°38'0 0.0
2017-Sep-14 09:00N 37°57' E 023°38'0 0.0
2017-Sep-14 08:30N 37°57' E 023°38'0 0.0
2017-Sep-14 08:00N 37°57' E 023°38'0 0.0
2017-Sep-14 07:30N 37°57' E 023°38'0 0.0
2017-Sep-14 07:00N 37°57' E 023°38'0 0.0
2017-Sep-14 06:30N 37°57' E 023°38'0 0.0
2017-Sep-14 06:00N 37°57' E 023°38'0 0.0
2017-Sep-14 05:30N 37°57' E 023°38'0 0.0
2017-Sep-14 05:00N 37°57' E 023°38'0 0.0
2017-Sep-14 04:29N 37°57' E 023°38'0 0.0
2017-Sep-14 04:00N 37°57' E 023°38'0 0.4
2017-Sep-14 03:30N 37°57' E 023°38'2 4.6
2017-Sep-14 03:01N 37°54' E 023°37'918.7
2017-Sep-14 02:30N 37°46' E 023°43'1019.3
2017-Sep-14 02:00N 37°37' E 023°46'7 0.2
2017-Sep-12 19:56N 37°30' E 023°47'919.8
2017-Sep-12 19:30N 37°38' E 023°43'1019.6
2017-Sep-12 19:01N 37°47' E 023°39'917.7
2017-Sep-12 18:30N 37°56' E 023°37'2 2.9
2017-Sep-12 17:58N 37°57' E 023°38'0 0.0
2017-Sep-12 17:28N 37°57' E 023°38'0 0.0
2017-Sep-12 16:58N 37°57' E 023°38'0 0.0
2017-Sep-12 16:28N 37°57' E 023°38'0 0.0
2017-Sep-12 15:55N 37°57' E 023°38'0 0.0
2017-Sep-12 15:22N 37°57' E 023°38'0 0.0
2017-Sep-12 14:52N 37°57' E 023°38'0 0.0
2017-Sep-12 14:22N 37°57' E 023°38'0 0.0
2017-Sep-12 13:58N 37°57' E 023°38'0 0.0
2017-Sep-12 13:28N 37°57' E 023°38'0 0.0
2017-Sep-12 12:58N 37°57' E 023°38'0 0.0
2017-Sep-12 12:28N 37°57' E 023°38'0 0.0
2017-Sep-12 11:58N 37°57' E 023°38'0 0.0
2017-Sep-12 11:25N 37°57' E 023°38'0 0.0
2017-Sep-12 10:58N 37°57' E 023°38'0 0.0
2017-Sep-12 10:28N 37°57' E 023°38'0 0.0
2017-Sep-12 09:58N 37°57' E 023°38'0 0.0
2017-Sep-12 09:28N 37°57' E 023°38'0 0.0
2017-Sep-12 08:55N 37°57' E 023°38'0 0.0
2017-Sep-12 08:28N 37°57' E 023°38'0 0.0
2017-Sep-12 07:55N 37°57' E 023°38'0 0.0
2017-Sep-12 07:28N 37°57' E 023°38'0 0.0
2017-Sep-12 06:52N 37°57' E 023°38'0 0.0
2017-Sep-12 06:28N 37°57' E 023°38'0 0.0
2017-Sep-12 05:55N 37°57' E 023°38'0 0.0
2017-Sep-12 05:25N 37°57' E 023°38'0 0.0
2017-Sep-12 05:00N 37°57' E 023°38'0 0.0
2017-Sep-12 04:25N 37°57' E 023°38'0 0.0
2017-Sep-12 04:01N 37°57' E 023°38'0 0.0
2017-Sep-12 03:30N 37°57' E 023°38'2 3.7
2017-Sep-12 03:01N 37°55' E 023°37'816.5
2017-Sep-12 02:31N 37°48' E 023°41'1019.1
2017-Sep-12 02:00N 37°39' E 023°46'  
Track history (hours):
 
Tides and Currents Weather Stations Pressure Air Temp Water Temp Dewpoint Dewpoint Depression Visibility Wind Speed Wind Dir Waves Ship Positions

Kriti II

Last reported at 2017-Sep-20 19:47 UTC. Time now 2017-Sep-24 00:00 UTC.
Position N 37°30' E 023°46'.

Length 192 m; draft 7 m.

Type: Passenger vessel. MMSI: 237032000.

Date/timePositionNaut miles runAvg speedWind from/ knotsBaromVisibWave heightAir tempDewpointWater temp
2017-Sep-20 19:47N 37°30' E 023°46'620.1
2017-Sep-20 19:31N 37°35' E 023°44'1020.1
2017-Sep-20 19:01N 37°45' E 023°39'1019.1
2017-Sep-20 18:31N 37°54' E 023°37'3 5.3
2017-Sep-20 17:59N 37°57' E 023°38'0 0.0
2017-Sep-20 17:29N 37°57' E 023°38'0 0.0
2017-Sep-20 16:59N 37°57' E 023°38'0 0.0
2017-Sep-20 16:29N 37°57' E 023°38'0 0.0
2017-Sep-20 15:59N 37°57' E 023°38'0 0.0
2017-Sep-20 15:29N 37°57' E 023°38'0 0.0
2017-Sep-20 14:59N 37°57' E 023°38'0 0.0
2017-Sep-20 13:59N 37°57' E 023°38'0 0.0
2017-Sep-20 13:29N 37°57' E 023°38'0 0.0
2017-Sep-20 12:59N 37°57' E 023°38'0 0.0
2017-Sep-20 12:29N 37°57' E 023°38'0 0.0
2017-Sep-20 11:59N 37°57' E 023°38'0 0.0
2017-Sep-20 11:29N 37°57' E 023°38'0 0.0
2017-Sep-20 10:59N 37°57' E 023°38'0 0.0
2017-Sep-20 10:26N 37°57' E 023°38'0 0.0
2017-Sep-20 09:59N 37°57' E 023°38'0 0.0
2017-Sep-20 09:29N 37°57' E 023°38'0 0.0
2017-Sep-20 08:59N 37°57' E 023°38'0 0.0
2017-Sep-20 08:29N 37°57' E 023°38'0 0.0
2017-Sep-20 07:59N 37°57' E 023°38'0 0.0
2017-Sep-20 07:26N 37°57' E 023°38'0 0.0
2017-Sep-20 06:59N 37°57' E 023°38'0 0.0
2017-Sep-20 06:29N 37°57' E 023°38'0 0.0
2017-Sep-20 05:59N 37°57' E 023°38'0 0.0
2017-Sep-20 05:30N 37°57' E 023°38'0 0.0
2017-Sep-20 04:59N 37°57' E 023°38'0 0.0
2017-Sep-20 04:29N 37°57' E 023°38'0 0.0
2017-Sep-20 04:00N 37°57' E 023°38'0 0.4
2017-Sep-20 03:31N 37°57' E 023°38'3 6.1
2017-Sep-20 03:01N 37°54' E 023°38'1019.5
2017-Sep-20 02:30N 37°45' E 023°43'1019.8
2017-Sep-20 02:00N 37°35' E 023°48'1020.1
2017-Sep-20 01:30N 37°26' E 023°52'1019.8
2017-Sep-20 01:00N 37°17' E 023°56'1019.7
2017-Sep-20 00:30N 37°07' E 024°01'1019.6
2017-Sep-20 00:00N 36°58' E 024°03'1019.5
2017-Sep-19 23:30N 36°49' E 024°08'1019.5
2017-Sep-19 23:00N 36°40' E 024°12'1019.8
2017-Sep-19 22:30N 36°30' E 024°16'1019.4
2017-Sep-19 22:00N 36°22' E 024°22'1019.2
2017-Sep-19 21:30N 36°14' E 024°29'1019.0
2017-Sep-19 21:00N 36°06' E 024°35'16 0.8
2017-Sep-18 23:33N 36°20' E 024°24'120.0
2017-Sep-18 23:30N 36°20' E 024°23'1019.8
2017-Sep-18 23:00N 36°29' E 024°17'2619.9
2017-Sep-18 21:43N 36°52' E 024°04'519.9
2017-Sep-18 21:29N 36°57' E 024°02'1019.9
2017-Sep-18 21:00N 37°06' E 023°58'1320.0
2017-Sep-18 20:20N 37°18' E 023°53'720.0
2017-Sep-18 20:00N 37°25' E 023°50'1019.9
2017-Sep-18 19:30N 37°34' E 023°45'1020.1
2017-Sep-18 19:00N 37°43' E 023°40'1019.4
2017-Sep-18 18:30N 37°53' E 023°37'4 8.6
2017-Sep-18 18:00N 37°57' E 023°38'0 0.0
2017-Sep-18 17:30N 37°57' E 023°38'0 0.0
2017-Sep-18 17:00N 37°57' E 023°38'0 0.0
2017-Sep-18 16:30N 37°57' E 023°38'0 0.0
2017-Sep-18 16:00N 37°57' E 023°38'0 0.0
2017-Sep-18 15:30N 37°57' E 023°38'0 0.0
2017-Sep-18 15:00N 37°57' E 023°38'0 0.0
2017-Sep-18 14:30N 37°57' E 023°38'0 0.0
2017-Sep-18 14:00N 37°57' E 023°38'0 0.0
2017-Sep-18 13:30N 37°57' E 023°38'0 0.0
2017-Sep-18 13:00N 37°57' E 023°38'0 0.0
2017-Sep-18 12:30N 37°57' E 023°38'0 0.0
2017-Sep-18 12:00N 37°57' E 023°38'0 0.0
2017-Sep-18 11:30N 37°57' E 023°38'0 0.0
2017-Sep-18 11:00N 37°57' E 023°38'0 0.0
2017-Sep-18 10:30N 37°57' E 023°38'0 0.0
2017-Sep-18 10:00N 37°57' E 023°38'0 0.0
2017-Sep-18 09:30N 37°57' E 023°38'0 0.0
2017-Sep-18 09:00N 37°57' E 023°38'0 0.0
2017-Sep-18 08:30N 37°57' E 023°38'0 0.0
2017-Sep-18 08:00N 37°57' E 023°38'0 0.0
2017-Sep-18 07:30N 37°57' E 023°38'0 0.0
2017-Sep-18 07:00N 37°57' E 023°38'0 0.0
2017-Sep-18 06:30N 37°57' E 023°38'0 0.0
2017-Sep-18 06:00N 37°57' E 023°38'0 0.0
2017-Sep-18 05:30N 37°57' E 023°38'0 0.0
2017-Sep-18 05:00N 37°57' E 023°38'0 0.0
2017-Sep-18 04:30N 37°57' E 023°38'0 0.0
2017-Sep-18 04:00N 37°57' E 023°38'0 0.0
2017-Sep-18 03:30N 37°57' E 023°38'1 2.3
2017-Sep-18 03:01N 37°56' E 023°37'611.4
2017-Sep-18 02:31N 37°51' E 023°39'1019.8
2017-Sep-18 02:00N 37°42' E 023°45'1020.3
2017-Sep-18 01:31N 37°32' E 023°49'1020.3
2017-Sep-18 01:01N 37°23' E 023°53'1020.3
2017-Sep-18 00:30N 37°13' E 023°57'1020.6
2017-Sep-18 00:00N 37°03' E 024°01'3620.4
2017-Sep-17 22:13N 36°29' E 024°17'41 1.9
2017-Sep-17 00:56N 35°54' E 024°44'920.5
2017-Sep-17 00:30N 36°01' E 024°38'6720.3
2017-Sep-16 21:13N 37°01' E 024°00'2720.1
2017-Sep-16 19:54N 37°26' E 023°49'820.1
2017-Sep-16 19:30N 37°33' E 023°45'1019.9
2017-Sep-16 19:00N 37°43' E 023°41'1019.6
2017-Sep-16 18:30N 37°52' E 023°37'5 9.8
2017-Sep-16 17:59N 37°57' E 023°38'0 0.0
2017-Sep-16 17:29N 37°57' E 023°38'0 0.0
2017-Sep-16 16:59N 37°57' E 023°38'0 0.0
2017-Sep-16 16:29N 37°57' E 023°38'0 0.0
2017-Sep-16 15:56N 37°57' E 023°38'0 0.0
2017-Sep-16 15:30N 37°57' E 023°38'0 0.0
2017-Sep-16 14:59N 37°57' E 023°38'0 0.0
2017-Sep-16 14:29N 37°57' E 023°38'0 0.0
2017-Sep-16 13:59N 37°57' E 023°38'0 0.0
2017-Sep-16 13:29N 37°57' E 023°38'0 0.0
2017-Sep-16 13:00N 37°57' E 023°38'0 0.0
2017-Sep-16 12:29N 37°57' E 023°38'0 0.0
2017-Sep-16 11:59N 37°57' E 023°38'0 0.0
2017-Sep-16 11:29N 37°57' E 023°38'0 0.0
2017-Sep-16 10:59N 37°57' E 023°38'0 0.0
2017-Sep-16 10:29N 37°57' E 023°38'0 0.0
2017-Sep-16 09:56N 37°57' E 023°38'0 0.0
2017-Sep-16 09:30N 37°57' E 023°38'0 0.0
2017-Sep-16 08:59N 37°57' E 023°38'0 0.0
2017-Sep-16 08:28N 37°57' E 023°38'0 0.0
2017-Sep-16 07:58N 37°57' E 023°38'0 0.0
2017-Sep-16 07:28N 37°57' E 023°38'0 0.0
2017-Sep-16 06:58N 37°57' E 023°38'0 0.0
2017-Sep-16 06:29N 37°57' E 023°38'0 0.0
2017-Sep-16 05:58N 37°57' E 023°38'0 0.0
2017-Sep-16 05:22N 37°57' E 023°38'0 0.0
2017-Sep-16 04:55N 37°57' E 023°38'0 0.0
2017-Sep-16 04:28N 37°57' E 023°38'0 0.0
2017-Sep-16 03:58N 37°57' E 023°38'0 0.0
2017-Sep-16 03:30N 37°57' E 023°38'1 2.6
2017-Sep-16 03:00N 37°56' E 023°37'816.9
2017-Sep-16 02:30N 37°48' E 023°41'1019.3
2017-Sep-16 02:00N 37°39' E 023°46'2620.0
2017-Sep-16 00:43N 37°15' E 023°57'420.2
2017-Sep-16 00:30N 37°11' E 023°58'1020.2
2017-Sep-16 00:00N 37°01' E 024°01'1020.1
2017-Sep-15 23:30N 36°52' E 024°06'28 1.0
2017-Sep-14 20:33N 37°17' E 023°53'119.2
2017-Sep-14 20:30N 37°18' E 023°53'1019.5
2017-Sep-14 20:00N 37°27' E 023°48'1019.4
2017-Sep-14 19:30N 37°36' E 023°44'1019.6
2017-Sep-14 19:01N 37°45' E 023°39'918.8
2017-Sep-14 18:31N 37°54' E 023°37'3 5.1
2017-Sep-14 18:00N 37°57' E 023°38'0 0.0
2017-Sep-14 17:30N 37°57' E 023°38'0 0.0
2017-Sep-14 17:00N 37°57' E 023°38'0 0.0
2017-Sep-14 16:30N 37°57' E 023°38'0 0.0
2017-Sep-14 16:00N 37°57' E 023°38'0 0.0
2017-Sep-14 15:30N 37°57' E 023°38'0 0.0
2017-Sep-14 15:00N 37°57' E 023°38'0 0.0
2017-Sep-14 14:30N 37°57' E 023°38'0 0.0
2017-Sep-14 14:01N 37°57' E 023°38'0 0.0
2017-Sep-14 13:30N 37°57' E 023°38'0 0.0
2017-Sep-14 13:00N 37°57' E 023°38'0 0.0
2017-Sep-14 12:30N 37°57' E 023°38'0 0.0
2017-Sep-14 12:00N 37°57' E 023°38'0 0.0
2017-Sep-14 11:30N 37°57' E 023°38'0 0.0
2017-Sep-14 11:00N 37°57' E 023°38'0 0.0
2017-Sep-14 10:30N 37°57' E 023°38'0 0.0
2017-Sep-14 10:00N 37°57' E 023°38'0 0.0
2017-Sep-14 09:30N 37°57' E 023°38'0 0.0
2017-Sep-14 09:00N 37°57' E 023°38'0 0.0
2017-Sep-14 08:30N 37°57' E 023°38'0 0.0
2017-Sep-14 08:00N 37°57' E 023°38'0 0.0
2017-Sep-14 07:30N 37°57' E 023°38'0 0.0
2017-Sep-14 07:00N 37°57' E 023°38'0 0.0
2017-Sep-14 06:30N 37°57' E 023°38'0 0.0
2017-Sep-14 06:00N 37°57' E 023°38'0 0.0
2017-Sep-14 05:30N 37°57' E 023°38'0 0.0
2017-Sep-14 05:00N 37°57' E 023°38'0 0.0
2017-Sep-14 04:29N 37°57' E 023°38'0 0.0
2017-Sep-14 04:00N 37°57' E 023°38'0 0.4
2017-Sep-14 03:30N 37°57' E 023°38'2 4.6
2017-Sep-14 03:01N 37°54' E 023°37'918.7
2017-Sep-14 02:30N 37°46' E 023°43'1019.3
2017-Sep-14 02:00N 37°37' E 023°46'7 0.2
2017-Sep-12 19:56N 37°30' E 023°47'919.8
2017-Sep-12 19:30N 37°38' E 023°43'1019.6
2017-Sep-12 19:01N 37°47' E 023°39'917.7
2017-Sep-12 18:30N 37°56' E 023°37'2 2.9
2017-Sep-12 17:58N 37°57' E 023°38'0 0.0
2017-Sep-12 17:28N 37°57' E 023°38'0 0.0
2017-Sep-12 16:58N 37°57' E 023°38'0 0.0
2017-Sep-12 16:28N 37°57' E 023°38'0 0.0
2017-Sep-12 15:55N 37°57' E 023°38'0 0.0
2017-Sep-12 15:22N 37°57' E 023°38'0 0.0
2017-Sep-12 14:52N 37°57' E 023°38'0 0.0
2017-Sep-12 14:22N 37°57' E 023°38'0 0.0
2017-Sep-12 13:58N 37°57' E 023°38'0 0.0
2017-Sep-12 13:28N 37°57' E 023°38'0 0.0
2017-Sep-12 12:58N 37°57' E 023°38'0 0.0
2017-Sep-12 12:28N 37°57' E 023°38'0 0.0
2017-Sep-12 11:58N 37°57' E 023°38'0 0.0
2017-Sep-12 11:25N 37°57' E 023°38'0 0.0
2017-Sep-12 10:58N 37°57' E 023°38'0 0.0
2017-Sep-12 10:28N 37°57' E 023°38'0 0.0
2017-Sep-12 09:58N 37°57' E 023°38'0 0.0
2017-Sep-12 09:28N 37°57' E 023°38'0 0.0
2017-Sep-12 08:55N 37°57' E 023°38'0 0.0
2017-Sep-12 08:28N 37°57' E 023°38'0 0.0
2017-Sep-12 07:55N 37°57' E 023°38'0 0.0
2017-Sep-12 07:28N 37°57' E 023°38'0 0.0
2017-Sep-12 06:52N 37°57' E 023°38'0 0.0
2017-Sep-12 06:28N 37°57' E 023°38'0 0.0
2017-Sep-12 05:55N 37°57' E 023°38'0 0.0
2017-Sep-12 05:25N 37°57' E 023°38'0 0.0
2017-Sep-12 05:00N 37°57' E 023°38'0 0.0
2017-Sep-12 04:25N 37°57' E 023°38'0 0.0
2017-Sep-12 04:01N 37°57' E 023°38'0 0.0
2017-Sep-12 03:30N 37°57' E 023°38'2 3.7
2017-Sep-12 03:01N 37°55' E 023°37'816.5
2017-Sep-12 02:31N 37°48' E 023°41'1019.1
2017-Sep-12 02:00N 37°39' E 023°46'  

Dump ship's entire track history